createdAt,value
2022-10-15T00:01:59.964Z,14.87
2022-10-15T00:04:26.357Z,14.80
2022-10-15T00:06:52.756Z,14.81
2022-10-15T00:09:19.177Z,14.76
2022-10-15T00:11:45.573Z,14.76
2022-10-15T00:14:11.975Z,14.74
2022-10-15T00:16:38.555Z,14.65
2022-10-15T00:19:05.200Z,14.67
2022-10-15T00:21:31.653Z,14.77
2022-10-15T00:23:58.065Z,14.78
2022-10-15T00:26:26.794Z,14.84
2022-10-15T00:28:55.477Z,14.85
2022-10-15T00:31:24.313Z,14.76
2022-10-15T00:33:52.358Z,14.76
2022-10-15T00:36:21.274Z,14.86
2022-10-15T00:38:47.857Z,14.84
2022-10-15T00:41:24.117Z,14.87
2022-10-15T00:43:53.878Z,14.89
2022-10-15T00:46:41.697Z,14.83
2022-10-15T00:49:15.361Z,14.91
2022-10-15T00:51:47.382Z,14.74
2022-10-15T00:54:15.092Z,14.86
2022-10-15T00:56:45.030Z,14.91
2022-10-15T00:59:13.892Z,14.84
2022-10-15T01:01:40.536Z,14.81
2022-10-15T01:04:07.884Z,14.78
2022-10-15T01:06:35.943Z,14.72
2022-10-15T01:09:02.714Z,14.71
2022-10-15T01:11:46.734Z,14.86
2022-10-15T01:14:44.287Z,14.83
2022-10-15T01:17:26.979Z,14.97
2022-10-15T01:20:29.722Z,14.99
2022-10-15T01:23:33.682Z,15.02
2022-10-15T01:26:34.920Z,14.89
2022-10-15T01:29:23.006Z,14.85
2022-10-15T01:32:00.758Z,14.82
2022-10-15T01:35:04.172Z,14.91
2022-10-15T01:37:49.210Z,14.91
2022-10-15T01:40:20.383Z,14.88
2022-10-15T01:42:59.048Z,14.93
2022-10-15T01:45:39.822Z,14.88
2022-10-15T01:48:18.480Z,14.93
2022-10-15T01:50:51.264Z,14.98
2022-10-15T01:53:26.457Z,14.87
2022-10-15T01:56:00.605Z,14.87
2022-10-15T01:58:29.689Z,14.91
2022-10-15T02:00:58.540Z,14.96
2022-10-15T02:03:26.128Z,14.96
2022-10-15T02:06:04.299Z,15.04
2022-10-15T02:08:40.279Z,15.00
2022-10-15T02:11:12.843Z,15.01
2022-10-15T02:14:03.233Z,15.04
2022-10-15T02:16:54.891Z,14.99
2022-10-15T02:19:30.386Z,15.05
2022-10-15T02:22:08.985Z,15.08
2022-10-15T02:24:42.073Z,14.97
2022-10-15T02:27:10.872Z,15.00
2022-10-15T02:29:39.510Z,15.00
2022-10-15T02:32:08.487Z,15.03
2022-10-15T02:34:36.098Z,15.13
2022-10-15T02:37:05.034Z,15.07
2022-10-15T02:39:34.014Z,15.03
2022-10-15T02:42:01.076Z,14.99
2022-10-15T02:44:27.483Z,15.08
2022-10-15T02:46:54.916Z,15.08
2022-10-15T02:49:22.394Z,15.11
2022-10-15T02:51:50.209Z,15.11
2022-10-15T02:54:17.140Z,15.15
2022-10-15T02:56:46.566Z,15.09
2022-10-15T02:59:13.756Z,14.98
2022-10-15T03:01:40.200Z,15.05
2022-10-15T03:04:06.800Z,15.04
2022-10-15T03:06:33.871Z,15.01
2022-10-15T03:09:00.416Z,15.09
2022-10-15T03:11:26.883Z,15.12
2022-10-15T03:13:53.413Z,15.15
2022-10-15T03:16:20.986Z,15.00
2022-10-15T03:18:47.528Z,15.00
2022-10-15T03:21:15.131Z,15.07
2022-10-15T03:23:42.404Z,15.02
2022-10-15T03:26:19.083Z,14.97
2022-10-15T03:28:45.630Z,14.96
2022-10-15T03:31:18.966Z,14.93
2022-10-15T03:33:48.304Z,15.02
2022-10-15T03:36:15.201Z,15.05
2022-10-15T03:38:41.651Z,14.96
2022-10-15T03:41:12.342Z,14.94
2022-10-15T03:43:42.834Z,14.94
2022-10-15T03:46:10.425Z,14.98
2022-10-15T03:48:41.451Z,14.96
2022-10-15T03:51:09.964Z,15.04
2022-10-15T03:53:36.477Z,15.06
2022-10-15T03:56:05.065Z,15.02
2022-10-15T03:58:31.818Z,14.87
2022-10-15T04:01:01.940Z,14.87
2022-10-15T04:03:28.378Z,14.84
2022-10-15T04:05:56.006Z,14.76
2022-10-15T04:08:26.649Z,14.72
2022-10-15T04:10:53.097Z,14.73
2022-10-15T04:13:19.789Z,14.69
2022-10-15T04:15:46.190Z,14.75
2022-10-15T04:18:13.963Z,14.80
2022-10-15T04:20:42.606Z,14.64
2022-10-15T04:23:15.982Z,14.62
2022-10-15T04:25:54.491Z,14.63
2022-10-15T04:28:21.257Z,14.71
2022-10-15T04:30:47.785Z,14.64
2022-10-15T04:33:15.197Z,14.67
2022-10-15T04:35:42.185Z,14.66
2022-10-15T04:38:12.587Z,14.65
2022-10-15T04:41:03.248Z,14.63
2022-10-15T04:43:42.264Z,14.75
2022-10-15T04:46:10.446Z,14.78
2022-10-15T04:48:42.069Z,14.81
2022-10-15T04:51:19.848Z,14.80
2022-10-15T04:54:01.694Z,14.77
2022-10-15T04:56:29.583Z,14.73
2022-10-15T04:58:56.315Z,14.79
2022-10-15T05:01:25.501Z,14.77
2022-10-15T05:03:58.815Z,14.75
2022-10-15T05:06:25.515Z,14.62
2022-10-15T05:08:56.941Z,14.58
2022-10-15T05:11:29.898Z,14.58
2022-10-15T05:13:58.556Z,14.53
2022-10-15T05:16:28.061Z,14.60
2022-10-15T05:18:58.460Z,14.55
2022-10-15T05:21:25.258Z,14.56
2022-10-15T05:23:55.809Z,14.54
2022-10-15T05:26:40.723Z,14.46
2022-10-15T05:29:09.018Z,14.54
2022-10-15T05:31:35.448Z,14.47
2022-10-15T05:34:12.818Z,14.46
2022-10-15T05:36:57.035Z,14.40
2022-10-15T05:39:23.877Z,14.40
2022-10-15T05:41:50.959Z,14.31
2022-10-15T05:44:19.966Z,14.31
2022-10-15T05:46:46.455Z,14.35
2022-10-15T05:49:19.252Z,14.32
2022-10-15T05:51:53.224Z,14.29
2022-10-15T05:54:33.777Z,14.27
2022-10-15T05:57:00.182Z,14.33
2022-10-15T05:59:26.581Z,14.18
2022-10-15T06:01:53.222Z,14.25
2022-10-15T06:04:19.664Z,14.22
2022-10-15T06:06:46.062Z,14.23
2022-10-15T06:09:12.445Z,14.21
2022-10-15T06:11:38.896Z,14.21
2022-10-15T06:14:05.846Z,14.23
2022-10-15T06:16:33.292Z,14.32
2022-10-15T06:18:59.722Z,14.39
2022-10-15T06:21:26.136Z,14.41
2022-10-15T06:23:52.530Z,14.42
2022-10-15T06:26:18.911Z,14.42
2022-10-15T06:28:47.902Z,14.48
2022-10-15T06:31:14.459Z,14.58
2022-10-15T06:33:40.834Z,14.61
2022-10-15T06:36:10.474Z,14.72
2022-10-15T06:38:37.213Z,14.64
2022-10-15T06:41:04.859Z,14.63
2022-10-15T06:43:34.795Z,14.61
2022-10-15T06:46:03.743Z,14.59
2022-10-15T06:48:30.135Z,14.61
2022-10-15T06:50:59.286Z,14.68
2022-10-15T06:53:25.699Z,14.68
2022-10-15T06:55:52.100Z,14.72
2022-10-15T06:58:18.494Z,14.86
2022-10-15T07:00:44.927Z,14.93
2022-10-15T07:03:11.352Z,14.83
2022-10-15T07:05:37.757Z,14.96
2022-10-15T07:08:05.137Z,15.07
2022-10-15T07:10:31.522Z,15.10
2022-10-15T07:13:01.430Z,15.04
2022-10-15T07:15:28.933Z,15.17
2022-10-15T07:18:01.731Z,15.23
2022-10-15T07:20:30.047Z,15.23
2022-10-15T07:23:00.397Z,15.28
2022-10-15T07:25:30.074Z,15.34
2022-10-15T07:27:57.401Z,15.38
2022-10-15T07:30:27.578Z,15.46
2022-10-15T07:32:56.627Z,15.43
2022-10-15T07:35:25.433Z,15.51
2022-10-15T07:37:51.829Z,15.56
2022-10-15T07:40:19.013Z,15.65
2022-10-15T07:42:45.411Z,15.66
2022-10-15T07:45:12.969Z,15.67
2022-10-15T07:47:40.596Z,15.73
2022-10-15T07:50:07.140Z,15.72
2022-10-15T07:52:33.536Z,15.76
2022-10-15T07:54:59.946Z,15.76
2022-10-15T07:57:26.332Z,15.87
2022-10-15T07:59:52.955Z,15.93
2022-10-15T08:02:19.481Z,15.97
2022-10-15T08:04:45.958Z,16.00
2022-10-15T08:07:12.349Z,16.00
2022-10-15T08:09:38.793Z,16.01
2022-10-15T08:12:06.894Z,15.97
2022-10-15T08:14:34.684Z,16.10
2022-10-15T08:17:05.189Z,16.22
2022-10-15T08:19:31.792Z,16.28
2022-10-15T08:21:58.276Z,16.33
2022-10-15T08:24:25.073Z,16.42
2022-10-15T08:26:51.463Z,16.47
2022-10-15T08:29:17.871Z,16.60
2022-10-15T08:31:44.286Z,16.68
2022-10-15T08:34:10.736Z,16.70
2022-10-15T08:36:37.115Z,16.82
2022-10-15T08:39:03.540Z,16.87
2022-10-15T08:41:50.569Z,16.92
2022-10-15T08:44:27.665Z,16.92
2022-10-15T08:47:08.148Z,17.09
2022-10-15T08:49:47.398Z,17.14
2022-10-15T08:52:24.151Z,17.17
2022-10-15T08:54:51.155Z,17.18
2022-10-15T08:57:31.411Z,17.25
2022-10-15T09:00:11.098Z,17.31
2022-10-15T09:03:05.329Z,17.39
2022-10-15T09:05:51.544Z,17.38
2022-10-15T09:08:45.761Z,17.36
2022-10-15T09:11:34.815Z,17.45
2022-10-15T09:14:03.773Z,17.51
2022-10-15T09:16:36.682Z,17.56
2022-10-15T09:19:12.102Z,17.52
2022-10-15T09:21:38.565Z,17.61
2022-10-15T09:24:05.595Z,17.59
2022-10-15T09:26:51.718Z,17.63
2022-10-15T09:29:31.689Z,17.74
2022-10-15T09:32:20.442Z,17.67
2022-10-15T09:35:15.082Z,17.65
2022-10-15T09:38:15.509Z,17.81
2022-10-15T09:40:59.278Z,17.58
2022-10-15T09:43:34.799Z,17.61
2022-10-15T09:46:02.616Z,17.65
2022-10-15T09:48:33.808Z,17.86
2022-10-15T09:51:06.532Z,17.85
2022-10-15T09:54:01.524Z,17.97
2022-10-15T09:56:39.484Z,17.89
2022-10-15T09:59:08.905Z,17.77
2022-10-15T10:01:36.577Z,17.63
2022-10-15T10:04:13.656Z,17.83
2022-10-15T10:06:51.031Z,17.87
2022-10-15T10:09:21.251Z,18.10
2022-10-15T10:11:53.640Z,17.84
2022-10-15T10:14:27.553Z,18.10
2022-10-15T10:17:15.571Z,18.24
2022-10-15T10:19:42.597Z,18.10
2022-10-15T10:22:18.521Z,17.98
2022-10-15T10:24:47.268Z,18.09
2022-10-15T10:27:27.619Z,18.00
2022-10-15T10:29:59.632Z,18.05
2022-10-15T10:32:35.733Z,18.20
2022-10-15T10:35:04.585Z,18.39
2022-10-15T10:37:42.315Z,18.51
2022-10-15T10:40:21.743Z,18.64
2022-10-15T10:42:48.148Z,18.76
2022-10-15T10:45:23.766Z,18.88
2022-10-15T10:47:50.286Z,18.67
2022-10-15T10:50:33.664Z,18.86
2022-10-15T10:53:19.979Z,19.11
2022-10-15T10:55:46.600Z,19.02
2022-10-15T10:58:23.415Z,19.30
2022-10-15T11:00:53.578Z,19.35
2022-10-15T11:03:38.338Z,19.37
2022-10-15T11:06:18.004Z,19.34
2022-10-15T11:08:59.494Z,19.40
2022-10-15T11:11:33.387Z,19.43
2022-10-15T11:14:19.237Z,19.30
2022-10-15T11:16:54.970Z,19.48
2022-10-15T11:19:55.048Z,19.52
2022-10-15T11:23:00.711Z,19.35
2022-10-15T11:25:54.145Z,19.67
2022-10-15T11:28:31.994Z,19.82
2022-10-15T11:31:10.696Z,19.82
2022-10-15T11:34:18.806Z,19.90
2022-10-15T11:37:10.807Z,19.54
2022-10-15T11:39:44.541Z,19.82
2022-10-15T11:42:30.534Z,19.94
2022-10-15T11:45:14.948Z,19.98
2022-10-15T11:47:52.638Z,20.24
2022-10-15T11:50:34.933Z,20.19
2022-10-15T11:53:38.598Z,20.37
2022-10-15T11:56:18.231Z,20.31
2022-10-15T11:58:56.445Z,20.49
2022-10-15T12:01:33.022Z,20.41
2022-10-15T12:04:15.671Z,20.31
2022-10-15T12:06:47.690Z,20.33
2022-10-15T12:09:20.455Z,20.35
2022-10-15T12:11:56.941Z,20.33
2022-10-15T12:14:53.633Z,20.51
2022-10-15T12:20:07.033Z,20.57
2022-10-15T12:22:40.725Z,20.72
2022-10-15T12:25:39.095Z,20.55
2022-10-15T12:28:08.183Z,20.57
2022-10-15T12:30:37.637Z,20.53
2022-10-15T12:33:22.933Z,20.64
2022-10-15T12:35:58.163Z,20.60
2022-10-15T12:38:40.145Z,20.61
2022-10-15T12:41:09.881Z,20.44
2022-10-15T12:43:40.128Z,20.50
2022-10-15T12:46:08.978Z,20.36
2022-10-15T12:48:39.322Z,20.44
2022-10-15T12:51:23.693Z,20.61
2022-10-15T12:53:58.299Z,20.53
2022-10-15T12:56:40.094Z,20.29
2022-10-15T12:59:59.019Z,20.45
2022-10-15T13:02:32.583Z,20.53
2022-10-15T13:04:59.094Z,20.58
2022-10-15T13:07:26.079Z,20.57
2022-10-15T13:09:52.998Z,20.47
2022-10-15T13:12:28.671Z,20.45
2022-10-15T13:14:59.544Z,20.45
2022-10-15T13:17:25.895Z,20.32
2022-10-15T13:19:58.408Z,20.40
2022-10-15T13:22:28.106Z,20.38
2022-10-15T13:24:55.789Z,20.49
2022-10-15T13:27:30.511Z,20.62
2022-10-15T13:29:58.341Z,20.56
2022-10-15T13:32:27.121Z,20.46
2022-10-15T13:34:54.994Z,20.55
2022-10-15T13:37:29.342Z,20.62
2022-10-15T13:39:57.030Z,20.52
2022-10-15T13:42:25.857Z,20.63
2022-10-15T13:45:01.353Z,20.41
2022-10-15T13:47:35.148Z,20.37
2022-10-15T13:50:10.852Z,20.51
2022-10-15T13:53:16.456Z,20.69
2022-10-15T13:55:48.499Z,20.59
2022-10-15T13:58:31.269Z,20.53
2022-10-15T14:01:18.693Z,20.57
2022-10-15T14:03:53.279Z,20.31
2022-10-15T14:06:33.811Z,20.21
2022-10-15T14:09:24.972Z,20.32
2022-10-15T14:11:51.395Z,20.39
2022-10-15T14:14:27.530Z,20.42
2022-10-15T14:16:55.952Z,20.52
2022-10-15T14:19:30.006Z,20.62
2022-10-15T14:21:58.525Z,20.55
2022-10-15T14:24:32.867Z,20.40
2022-10-15T14:27:06.263Z,20.39
2022-10-15T14:29:43.081Z,20.46
2022-10-15T14:32:30.708Z,20.41
2022-10-15T14:34:58.985Z,20.40
2022-10-15T14:37:42.512Z,20.43
2022-10-15T14:40:12.667Z,20.35
2022-10-15T14:42:44.936Z,20.47
2022-10-15T14:45:17.360Z,20.39
2022-10-15T14:47:55.987Z,20.44
2022-10-15T14:50:32.576Z,20.29
2022-10-15T14:53:05.195Z,20.27
2022-10-15T14:55:42.679Z,20.36
2022-10-15T14:58:15.294Z,20.24
2022-10-15T15:00:44.119Z,20.31
2022-10-15T15:03:15.629Z,20.20
2022-10-15T15:05:53.743Z,20.16
2022-10-15T15:08:21.229Z,20.11
2022-10-15T15:13:23.898Z,19.93
2022-10-15T15:15:50.358Z,20.05
2022-10-15T15:18:16.887Z,20.11
2022-10-15T15:20:46.007Z,20.03
2022-10-15T15:23:18.206Z,20.02
2022-10-15T15:25:44.682Z,19.98
2022-10-15T15:28:16.790Z,19.97
2022-10-15T15:30:45.010Z,19.85
2022-10-15T15:33:13.920Z,19.86
2022-10-15T15:35:51.101Z,19.81
2022-10-15T15:38:23.380Z,19.71
2022-10-15T15:40:50.349Z,19.76
2022-10-15T15:43:18.735Z,19.69
2022-10-15T15:45:46.466Z,19.65
2022-10-15T15:48:12.911Z,19.70
2022-10-15T15:50:39.314Z,19.43
2022-10-15T15:53:05.715Z,19.56
2022-10-15T15:55:32.135Z,19.51
2022-10-15T15:57:58.532Z,19.41
2022-10-15T16:00:24.968Z,19.31
2022-10-15T16:02:54.109Z,19.17
2022-10-15T16:05:24.429Z,19.13
2022-10-15T16:07:50.823Z,19.01
2022-10-15T16:10:17.620Z,19.07
2022-10-15T16:12:44.468Z,18.93
2022-10-15T16:15:14.411Z,18.80
2022-10-15T16:17:41.766Z,18.70
2022-10-15T16:20:08.882Z,18.65
2022-10-15T16:22:35.302Z,18.69
2022-10-15T16:25:01.693Z,18.78
2022-10-15T16:27:28.326Z,18.74
2022-10-15T16:29:54.871Z,18.63
2022-10-15T16:32:21.673Z,18.61
2022-10-15T16:34:48.070Z,18.55
2022-10-15T16:37:14.447Z,18.41
2022-10-15T16:39:40.858Z,18.31
2022-10-15T16:42:08.390Z,18.22
2022-10-15T16:44:35.022Z,18.14
2022-10-15T16:47:01.840Z,18.13
2022-10-15T16:49:28.230Z,18.07
2022-10-15T16:51:54.636Z,17.95
2022-10-15T16:54:21.440Z,18.01
2022-10-15T16:56:50.517Z,17.99
2022-10-15T16:59:19.695Z,18.07
2022-10-15T17:01:46.329Z,17.85
2022-10-15T17:04:12.826Z,17.78
2022-10-15T17:06:39.221Z,17.58
2022-10-15T17:09:05.619Z,17.59
2022-10-15T17:11:37.884Z,17.62
2022-10-15T17:14:07.339Z,17.42
2022-10-15T17:16:37.641Z,17.47
2022-10-15T17:19:04.555Z,17.49
2022-10-15T17:21:32.219Z,17.56
2022-10-15T17:24:01.544Z,17.42
2022-10-15T17:26:30.408Z,17.36
2022-10-15T17:28:56.803Z,17.30
2022-10-15T17:31:25.149Z,17.29
2022-10-15T17:34:00.665Z,17.44
2022-10-15T17:36:29.626Z,17.38
2022-10-15T17:38:57.340Z,17.33
2022-10-15T17:41:26.124Z,17.24
2022-10-15T17:43:53.460Z,17.22
2022-10-15T17:46:22.346Z,17.26
2022-10-15T17:48:48.739Z,17.20
2022-10-15T17:51:17.913Z,17.22
2022-10-15T17:53:45.183Z,17.24
2022-10-15T17:56:20.583Z,17.24
2022-10-15T17:58:47.905Z,17.12
2022-10-15T18:01:33.388Z,17.08
2022-10-15T18:04:06.803Z,16.99
2022-10-15T18:06:33.298Z,16.98
2022-10-15T18:09:00.319Z,16.98
2022-10-15T18:11:32.954Z,16.99
2022-10-15T18:13:59.613Z,16.97
2022-10-15T18:16:26.536Z,17.04
2022-10-15T18:18:54.247Z,17.00
2022-10-15T18:21:23.045Z,16.94
2022-10-15T18:23:49.465Z,16.93
2022-10-15T18:26:19.842Z,16.87
2022-10-15T18:28:47.839Z,16.66
2022-10-15T18:31:15.403Z,16.75
2022-10-15T18:33:43.662Z,16.77
2022-10-15T18:36:19.814Z,16.77
2022-10-15T18:38:46.256Z,16.76
2022-10-15T18:41:17.201Z,16.77
2022-10-15T18:43:43.913Z,16.44
2022-10-15T18:46:10.548Z,16.54
2022-10-15T18:48:38.095Z,16.62
2022-10-15T18:51:09.795Z,16.59
2022-10-15T18:53:39.997Z,16.63
2022-10-15T18:56:08.075Z,16.63
2022-10-15T18:58:34.661Z,16.70
2022-10-15T19:01:14.150Z,16.63
2022-10-15T19:03:40.767Z,16.58
2022-10-15T19:06:08.169Z,16.53
2022-10-15T19:08:34.575Z,16.68
2022-10-15T19:11:04.221Z,16.62
2022-10-15T19:13:30.840Z,16.62
2022-10-15T19:16:00.398Z,16.57
2022-10-15T19:18:26.790Z,16.63
2022-10-15T19:20:53.180Z,16.63
2022-10-15T19:23:20.163Z,16.60
2022-10-15T19:25:46.530Z,16.66
2022-10-15T19:28:12.933Z,16.61
2022-10-15T19:30:41.302Z,16.68
2022-10-15T19:33:08.192Z,16.65
2022-10-15T19:35:41.331Z,16.71
2022-10-15T19:38:07.771Z,16.61
2022-10-15T19:40:38.812Z,16.68
2022-10-15T19:43:06.301Z,16.72
2022-10-15T19:45:45.387Z,16.83
2022-10-15T19:48:14.576Z,16.70
2022-10-15T19:50:42.897Z,16.68
2022-10-15T19:53:11.982Z,16.82
2022-10-15T19:55:39.298Z,16.77
2022-10-15T19:58:06.640Z,16.67
2022-10-15T20:00:33.111Z,16.80
2022-10-15T20:02:59.477Z,16.73
2022-10-15T20:05:25.850Z,16.74
2022-10-15T20:07:52.236Z,16.76
2022-10-15T20:10:22.437Z,16.78
2022-10-15T20:12:51.321Z,16.76
2022-10-15T20:15:17.727Z,16.89
2022-10-15T20:17:44.124Z,16.83
2022-10-15T20:20:10.504Z,16.94
2022-10-15T20:22:36.902Z,16.97
2022-10-15T20:25:03.380Z,17.00
2022-10-15T20:27:29.783Z,16.97
2022-10-15T20:29:56.181Z,16.84
2022-10-15T20:32:34.379Z,16.93
2022-10-15T20:35:02.658Z,16.96
2022-10-15T20:37:29.062Z,16.89
2022-10-15T20:42:27.131Z,16.93
2022-10-15T20:44:53.794Z,16.87
2022-10-15T20:47:20.628Z,16.88
2022-10-15T20:49:50.473Z,16.86
2022-10-15T20:52:16.924Z,16.88
2022-10-15T20:54:43.794Z,16.88
2022-10-15T20:57:10.927Z,16.86
2022-10-15T20:59:37.375Z,16.91
2022-10-15T21:02:04.111Z,16.84
2022-10-15T21:04:30.497Z,16.85
2022-10-15T21:06:57.347Z,16.92
2022-10-15T21:09:24.232Z,16.89
2022-10-15T21:11:50.670Z,16.88
2022-10-15T21:14:17.052Z,16.94
2022-10-15T21:16:43.452Z,16.86
2022-10-15T21:19:09.828Z,16.92
2022-10-15T21:21:36.217Z,16.85
2022-10-15T21:24:02.651Z,16.88
2022-10-15T21:26:29.315Z,16.86
2022-10-15T21:28:59.927Z,16.92
2022-10-15T21:31:27.164Z,16.86
2022-10-15T21:33:55.132Z,16.93
2022-10-15T21:36:26.564Z,16.87
2022-10-15T21:38:54.438Z,16.91
2022-10-15T21:41:22.280Z,16.94
2022-10-15T21:46:20.104Z,16.91
2022-10-15T21:48:48.024Z,16.98
2022-10-15T21:51:20.623Z,16.96
2022-10-15T21:53:47.397Z,16.99
2022-10-15T21:56:14.326Z,16.95
2022-10-15T21:58:41.221Z,16.98
2022-10-15T22:01:15.663Z,17.01
2022-10-15T22:03:45.651Z,17.01
2022-10-15T22:06:12.348Z,17.03
2022-10-15T22:08:39.322Z,17.05
2022-10-15T22:11:17.937Z,17.00
2022-10-15T22:13:47.070Z,17.02
2022-10-15T22:16:15.476Z,17.04
2022-10-15T22:18:41.922Z,17.02
2022-10-15T22:21:15.820Z,17.08
2022-10-15T22:23:48.121Z,17.04
2022-10-15T22:26:15.848Z,17.07
2022-10-15T22:28:42.965Z,17.05
2022-10-15T22:31:11.608Z,17.02
2022-10-15T22:33:39.201Z,17.05
2022-10-15T22:36:07.741Z,17.02
2022-10-15T22:38:34.176Z,16.99
2022-10-15T22:41:01.575Z,17.03
2022-10-15T22:43:27.997Z,17.05
2022-10-15T22:45:59.565Z,17.06
2022-10-15T22:48:26.404Z,17.06
2022-10-15T22:50:57.247Z,17.03
2022-10-15T22:53:23.625Z,17.01
2022-10-15T22:56:02.199Z,17.04
2022-10-15T22:58:30.732Z,17.09
2022-10-15T23:01:06.420Z,17.08
2022-10-15T23:03:32.843Z,17.12
2022-10-15T23:05:59.218Z,17.16
2022-10-15T23:08:25.643Z,17.11
2022-10-15T23:10:52.037Z,17.13
2022-10-15T23:13:18.428Z,17.16
2022-10-15T23:15:44.838Z,17.11
2022-10-15T23:18:11.247Z,16.97
2022-10-15T23:20:38.246Z,17.07
2022-10-15T23:23:05.870Z,17.00
2022-10-15T23:25:39.255Z,17.12
2022-10-15T23:28:06.055Z,17.02
2022-10-15T23:30:32.430Z,16.94
2022-10-15T23:33:01.751Z,17.00
2022-10-15T23:35:28.169Z,17.01
2022-10-15T23:37:54.619Z,17.06
2022-10-15T23:40:20.990Z,17.03
2022-10-15T23:42:47.395Z,17.02
2022-10-15T23:45:13.831Z,17.00
2022-10-15T23:47:40.235Z,17.09
2022-10-15T23:50:06.949Z,17.01
2022-10-15T23:52:33.332Z,17.11
2022-10-15T23:54:59.713Z,17.12
2022-10-15T23:57:26.440Z,17.13
2022-10-15T23:59:53.016Z,17.07
